Flight Track Log - Related Links

Times and Time Zones

All times are in EST time to prevent confusion due to time zone crossing. See the TAM3749 flight status page for this flight to view local times or setup timezone preferences in your user account.

Time Position Orientation Groundspeed Altitude Reporting Facility
EST Latitude Longitude Course Direction KTS MPH feet Rate Location/Type
Sun 02:48:55 PM -3.0400 -60.0090 91° East 153 176 2,200  Level FlightAware ADS-B
Sun 02:49:24 PM -3.0470 -59.9900 110° East 164 189 2,900 1,412 Climbing FlightAware ADS-B
Sun 02:49:46 PM -3.0620 -59.9820 152° Southeast 166 191 3,400 1,224 Climbing FlightAware ADS-B
Sun 02:50:13 PM -3.0810 -59.9730 155° Southeast 184 212 3,900 931 Climbing FlightAware ADS-B
Sun 02:50:44 PM -3.1090 -59.9600 155° Southeast 226 260 4,300 1,000 Climbing FlightAware ADS-B
Sun 02:51:25 PM -3.1520 -59.9390 154° Southeast 275 316 5,100 2,077 Climbing FlightAware ADS-B
Sun 02:52:02 PM -3.1960 -59.9170 153° Southeast 276 318 7,000 2,750 Climbing FlightAware ADS-B
Sun 02:52:37 PM -3.2350 -59.8980 154° Southeast 282 325 8,400 2,438 Climbing FlightAware ADS-B
Sun 02:53:06 PM -3.2700 -59.8810 154° Southeast 291 335 9,600 2,286 Climbing FlightAware ADS-B
Sun 02:53:40 PM -3.3130 -59.8600 154° Southeast 305 351 10,800 1,837 Climbing FlightAware ADS-B
Sun 02:54:44 PM -3.4010 -59.8170 154° Southeast 341 392 12,600 1,828 Climbing FlightAware ADS-B
Sun 02:55:48 PM -3.4940 -59.7720 154° Southeast 358 412 14,700 1,895 Climbing FlightAware ADS-B
Sun 02:56:19 PM -3.5440 -59.7610 168° South 366 421 15,600 1,647 Climbing FlightAware ADS-B
Sun 02:57:30 PM -3.6670 -59.7400 170° South 387 445 17,500 1,514 Climbing FlightAware ADS-B
Sun 02:58:10 PM -3.7400 -59.7270 170° South 400 460 18,400 1,571 Climbing FlightAware ADS-B
Sun 02:58:54 PM -3.8200 -59.7130 170° South 404 465 19,700 1,737 Climbing FlightAware ADS-B
Sun 02:59:26 PM -3.8780 -59.7020 169° South 406 467 20,600 811 Climbing FlightAware ADS-B
Sun 03:00:08 PM -3.9460 -59.6890 169° South 406 467 20,700 77 Climbing FlightAware ADS-B
Sun 03:00:44 PM -4.0020 -59.6780 169° South 406 467 20,700  Level FlightAware ADS-B
Sun 03:01:20 PM -4.0580 -59.6670 169° South 406 467 20,700  Level FlightAware ADS-B
Sun 03:01:44 PM -4.0960 -59.6600 170° South 406 467 20,700  Level FlightAware ADS-B
Sun 03:02:21 PM -4.1540 -59.6490 169° South 406 467 20,700  Level FlightAware ADS-B
Sun 03:02:57 PM -4.2100 -59.6380 169° South 406 467 20,700  Level FlightAware ADS-B
Sun 03:03:21 PM -4.2480 -59.6300 168° South 406 467 20,700 133 Level FlightAware ADS-B
Sun 03:06:00 PM -4.4950 -59.4734 148° Southeast  Level Estimated
Sun 03:07:00 PM -4.5882 -59.4142 148° Southeast  Level Estimated
Sun 03:08:00 PM -4.6813 -59.3550 148° Southeast  Level Estimated
Sun 03:09:00 PM -4.7745 -59.2959 148° Southeast  Level Estimated
Sun 03:10:00 PM -4.8677 -59.2367 148° Southeast  Level Estimated
Sun 03:11:00 PM -4.9609 -59.1775 148° Southeast  Level Estimated
Sun 03:12:00 PM -5.0540 -59.1183 148° Southeast  Level Estimated
Sun 03:13:00 PM -5.1472 -59.0590 148° Southeast  Level Estimated
Sun 03:14:00 PM -5.2403 -58.9998 148° Southeast  Level Estimated
Sun 03:15:00 PM -5.3335 -58.9405 148° Southeast  Level Estimated
Sun 03:16:00 PM -5.4266 -58.8812 148° Southeast  Level Estimated
Sun 03:17:00 PM -5.5198 -58.8219 148° Southeast  Level Estimated
Sun 03:18:00 PM -5.6129 -58.7626 148° Southeast  Level Estimated
Sun 03:19:00 PM -5.7060 -58.7032 148° Southeast  Level Estimated
Sun 03:20:00 PM -5.7991 -58.6438 148° Southeast  Level Estimated
Sun 03:21:00 PM -5.8922 -58.5844 148° Southeast  Level Estimated
Sun 03:22:00 PM -5.9854 -58.5250 148° Southeast  Level Estimated
Sun 03:23:00 PM -6.0785 -58.4656 148° Southeast  Level Estimated
Sun 03:24:00 PM -6.1715 -58.4062 148° Southeast  Level Estimated
Sun 03:25:00 PM -6.2646 -58.3467 148° Southeast  Level Estimated
Sun 03:26:00 PM -6.3577 -58.2872 148° Southeast  Level Estimated
Sun 03:27:00 PM -6.4508 -58.2277 148° Southeast  Level Estimated
Sun 03:28:00 PM -6.5438 -58.1682 148° Southeast  Level Estimated
Sun 03:29:00 PM -6.6369 -58.1086 148° Southeast  Level Estimated
Sun 03:30:00 PM -6.7300 -58.0490 148° Southeast  Level Estimated
Sun 03:31:00 PM -6.8230 -57.9894 148° Southeast  Level Estimated
Sun 03:32:00 PM -6.9160 -57.9298 148° Southeast  Level Estimated
Sun 03:33:00 PM -7.0091 -57.8702 148° Southeast  Level Estimated
Sun 03:34:00 PM -7.1021 -57.8105 148° Southeast  Level Estimated
Sun 03:35:00 PM -7.1951 -57.7508 148° Southeast  Level Estimated
Sun 03:36:00 PM -7.2881 -57.6911 148° Southeast  Level Estimated
Sun 03:37:00 PM -7.3811 -57.6313 148° Southeast  Level Estimated
Sun 03:38:00 PM -7.4741 -57.5716 147° Southeast  Level Estimated
Sun 03:39:00 PM -7.5671 -57.5118 147° Southeast  Level Estimated
Sun 03:40:00 PM -7.6601 -57.4520 147° Southeast  Level Estimated
Sun 03:41:00 PM -7.7530 -57.3921 147° Southeast  Level Estimated
Sun 03:42:00 PM -7.8460 -57.3322 147° Southeast  Level Estimated
Sun 03:43:00 PM -7.9389 -57.2723 147° Southeast  Level Estimated
Sun 03:44:00 PM -8.0319 -57.2124 147° Southeast  Level Estimated
Sun 03:45:00 PM -8.1248 -57.1525 147° Southeast  Level Estimated
Sun 03:46:00 PM -8.2177 -57.0925 147° Southeast  Level Estimated
Sun 03:47:00 PM -8.3106 -57.0325 147° Southeast  Level Estimated
Sun 03:48:00 PM -8.3995 -56.9750 147° Southeast  Level Estimated
Sun 03:49:00 PM -8.4884 -56.9176 147° Southeast  Level Estimated
Sun 03:50:00 PM -8.5772 -56.8601 147° Southeast  Level Estimated
Sun 03:51:00 PM -8.6661 -56.8026 147° Southeast  Level Estimated
Sun 03:52:00 PM -8.7549 -56.7451 147° Southeast  Level Estimated
Sun 03:53:00 PM -8.8437 -56.6875 147° Southeast  Level Estimated
Sun 03:54:00 PM -8.9325 -56.6299 147° Southeast  Level Estimated
Sun 03:55:00 PM -9.0213 -56.5723 147° Southeast  Level Estimated
Sun 03:56:00 PM -9.1102 -56.5146 147° Southeast  Level Estimated
Sun 03:57:00 PM -9.1989 -56.4570 147° Southeast  Level Estimated
Sun 03:58:00 PM -9.2877 -56.3993 147° Southeast  Level Estimated
Sun 03:59:00 PM -9.3765 -56.3415 147° Southeast  Level Estimated
Sun 04:00:00 PM -9.4653 -56.2838 147° Southeast  Level Estimated
Sun 04:01:00 PM -9.5540 -56.2260 147° Southeast  Level Estimated
Sun 04:02:00 PM -9.6427 -56.1682 147° Southeast  Level Estimated
Sun 04:03:00 PM -9.7315 -56.1103 147° Southeast  Level Estimated
Sun 04:04:00 PM -9.8202 -56.0524 147° Southeast  Level Estimated
Sun 04:05:00 PM -9.9089 -55.9945 147° Southeast  Level Estimated
Sun 04:06:00 PM -9.9976 -55.9366 147° Southeast  Level Estimated
Sun 04:07:00 PM -10.0863 -55.8786 147° Southeast  Level Estimated
Sun 04:08:00 PM -10.1750 -55.8206 147° Southeast  Level Estimated
Sun 04:09:00 PM -10.2636 -55.7625 147° Southeast  Level Estimated
Sun 04:10:00 PM -10.3523 -55.7045 147° Southeast  Level Estimated
Sun 04:11:00 PM -10.4410 -55.6464 147° Southeast  Level Estimated
Sun 04:12:00 PM -10.5296 -55.5882 147° Southeast  Level Estimated
Sun 04:13:00 PM -10.6182 -55.5300 147° Southeast  Level Estimated
Sun 04:14:00 PM -10.7068 -55.4718 147° Southeast  Level Estimated
Sun 04:15:00 PM -10.7955 -55.4136 147° Southeast  Level Estimated
Sun 04:16:00 PM -10.8841 -55.3553 147° Southeast  Level Estimated
Sun 04:17:00 PM -10.9726 -55.2970 147° Southeast  Level Estimated
Sun 04:18:00 PM -11.0612 -55.2387 147° Southeast  Level Estimated
Sun 04:19:00 PM -11.1498 -55.1803 147° Southeast  Level Estimated
Sun 04:20:00 PM -11.2383 -55.1219 147° Southeast  Level Estimated
Sun 04:21:00 PM -11.3269 -55.0634 147° Southeast  Level Estimated
Sun 04:22:00 PM -11.4154 -55.0049 147° Southeast  Level Estimated
Sun 04:23:00 PM -11.5039 -54.9464 147° Southeast  Level Estimated
Sun 04:24:00 PM -11.5924 -54.8878 147° Southeast  Level Estimated
Sun 04:25:00 PM -11.6809 -54.8292 147° Southeast  Level Estimated
Sun 04:26:00 PM -11.7694 -54.7706 147° Southeast  Level Estimated
Sun 04:27:00 PM -11.8579 -54.7119 147° Southeast  Level Estimated
Sun 04:28:00 PM -11.9463 -54.6532 147° Southeast  Level Estimated
Sun 04:29:00 PM -12.0348 -54.5945 147° Southeast  Level Estimated
Sun 04:30:00 PM -12.1232 -54.5357 147° Southeast  Level Estimated
Sun 04:31:00 PM -12.2116 -54.4768 147° Southeast  Level Estimated
Sun 04:32:00 PM -12.3001 -54.4180 147° Southeast  Level Estimated
Sun 04:33:00 PM -12.3885 -54.3591 147° Southeast  Level Estimated
Sun 04:34:00 PM -12.4768 -54.3001 147° Southeast  Level Estimated
Sun 04:35:00 PM -12.5652 -54.2411 147° Southeast  Level Estimated
Sun 04:36:00 PM -12.6536 -54.1821 147° Southeast  Level Estimated
Sun 04:37:00 PM -12.7419 -54.1230 147° Southeast  Level Estimated
Sun 04:38:00 PM -12.8302 -54.0639 147° Southeast  Level Estimated
Sun 04:39:00 PM -12.9186 -54.0048 147° Southeast  Level Estimated
Sun 04:40:00 PM -13.0069 -53.9456 147° Southeast  Level Estimated
Sun 04:41:00 PM -13.0952 -53.8863 147° Southeast  Level Estimated
Sun 04:42:00 PM -13.1834 -53.8270 147° Southeast  Level Estimated
Sun 04:43:00 PM -13.2717 -53.7677 147° Southeast  Level Estimated
Sun 04:44:00 PM -13.3600 -53.7084 147° Southeast  Level Estimated
Sun 04:45:00 PM -13.4482 -53.6490 147° Southeast  Level Estimated
Sun 04:46:00 PM -13.5364 -53.5895 147° Southeast  Level Estimated
Sun 04:47:00 PM -13.6246 -53.5300 147° Southeast  Level Estimated
Sun 04:48:00 PM -13.7128 -53.4705 147° Southeast  Level Estimated
Sun 04:49:00 PM -13.8010 -53.4109 147° Southeast  Level Estimated
Sun 04:50:00 PM -13.8892 -53.3513 147° Southeast  Level Estimated
Sun 04:51:00 PM -13.9773 -53.2916 147° Southeast  Level Estimated
Sun 04:52:00 PM -14.0655 -53.2319 147° Southeast  Level Estimated
Sun 04:53:00 PM -14.1536 -53.1721 147° Southeast  Level Estimated
Sun 04:54:00 PM -14.2417 -53.1123 147° Southeast  Level Estimated
Sun 04:55:00 PM -14.3298 -53.0524 147° Southeast  Level Estimated
Sun 04:56:00 PM -14.4179 -52.9925 147° Southeast  Level Estimated
Sun 04:57:00 PM -14.5059 -52.9326 147° Southeast  Level Estimated
Sun 04:58:00 PM -14.5940 -52.8726 147° Southeast  Level Estimated
Sun 04:59:00 PM -14.6820 -52.8125 147° Southeast  Level Estimated
Sun 05:00:00 PM -14.7700 -52.7524 147° Southeast  Level Estimated
Sun 05:01:00 PM -14.8580 -52.6923 147° Southeast  Level Estimated
Sun 05:02:00 PM -14.9460 -52.6321 147° Southeast  Level Estimated
Sun 05:03:00 PM -15.0340 -52.5718 147° Southeast  Level Estimated
Sun 05:04:00 PM -15.1220 -52.5115 147° Southeast  Level Estimated
Sun 05:05:00 PM -15.2099 -52.4512 146° Southeast  Level Estimated
Sun 05:06:00 PM -15.2978 -52.3908 146° Southeast  Level Estimated
Sun 05:07:00 PM -15.3857 -52.3303 146° Southeast  Level Estimated
Sun 05:08:00 PM -15.4736 -52.2698 146° Southeast  Level Estimated
Sun 05:09:00 PM -15.5615 -52.2093 146° Southeast  Level Estimated
Sun 05:10:00 PM -15.6494 -52.1487 146° Southeast  Level Estimated
Sun 05:11:00 PM -15.7372 -52.0880 146° Southeast  Level Estimated
Sun 05:12:00 PM -15.8250 -52.0273 146° Southeast  Level Estimated
Sun 05:13:00 PM -15.9128 -51.9665 146° Southeast  Level Estimated
Sun 05:14:00 PM -16.0006 -51.9057 146° Southeast  Level Estimated
Sun 05:15:00 PM -16.0884 -51.8449 146° Southeast  Level Estimated
Sun 05:16:00 PM -16.1761 -51.7840 146° Southeast  Level Estimated
Sun 05:17:00 PM -16.2639 -51.7230 146° Southeast  Level Estimated
Sun 05:18:00 PM -16.3516 -51.6619 146° Southeast  Level Estimated
Sun 05:19:00 PM -16.4393 -51.6009 146° Southeast  Level Estimated
Sun 05:20:00 PM -16.5270 -51.5397 146° Southeast  Level Estimated
Sun 05:20:06 PM -18.3740 -50.3820 146° Southeast 443 510 39,000  Level FlightAware ADS-B
Sun 05:20:43 PM -18.4240 -50.3390 141° Southeast 443 510 39,000  Level FlightAware ADS-B
Sun 05:21:00 PM -16.6147 -51.4785 146° Southeast  Level Estimated
Sun 05:21:45 PM -18.5370 -50.2480 143° Southeast 444 511 39,000  Level FlightAware ADS-B
Sun 05:22:38 PM -18.6100 -50.1860 141° Southeast 444 511 39,000  Level FlightAware ADS-B
Sun 05:23:29 PM -18.7060 -50.1100 143° Southeast 448 516 39,000  Level FlightAware ADS-B
Sun 05:23:57 PM -18.7490 -50.0740 142° Southeast 448 516 39,000  Level FlightAware ADS-B
Sun 05:25:02 PM -18.8410 -49.9970 142° Southeast 448 516 39,000  Level FlightAware ADS-B
Sun 05:25:46 PM -18.9270 -49.9280 143° Southeast 443 510 39,000  Level FlightAware ADS-B
Sun 05:26:35 PM -19.0090 -49.8610 142° Southeast 442 509 39,000  Level FlightAware ADS-B
Sun 05:27:31 PM -19.1000 -49.7850 142° Southeast 441 507 39,000  Level FlightAware ADS-B
Sun 05:28:10 PM -19.1620 -49.7340 142° Southeast 440 506 39,000  Level FlightAware ADS-B
Sun 05:29:05 PM -19.2510 -49.6610 142° Southeast 440 506 39,000  Level FlightAware ADS-B
Sun 05:30:07 PM -19.3500 -49.5780 142° Southeast 442 509 39,000  Level FlightAware ADS-B
Sun 05:30:33 PM -19.3900 -49.5450 142° Southeast 442 509 39,000  Level FlightAware ADS-B
Sun 05:31:41 PM -19.5010 -49.4530 142° Southeast 444 511 39,000  Level FlightAware ADS-B
Sun 05:32:39 PM -19.5930 -49.3700 140° Southeast 448 516 39,000  Level FlightAware ADS-B
Sun 05:33:35 PM -19.6630 -49.2740 128° Southeast 449 517 39,000  Level FlightAware ADS-B
Sun 05:34:03 PM -19.7010 -49.2240 129° Southeast 442 509 39,000  Level FlightAware ADS-B
Sun 05:35:00 PM -19.7920 -49.1500 143° Southeast 440 506 39,000  Level FlightAware ADS-B
Sun 05:35:34 PM -19.8480 -49.1050 143° Southeast 439 505 39,000  Level FlightAware ADS-B
Sun 05:36:06 PM -19.9010 -49.0620 143° Southeast 440 506 39,000  Level FlightAware ADS-B
Sun 05:36:56 PM -19.9780 -49.0000 143° Southeast 440 506 39,000  Level FlightAware ADS-B
Sun 05:37:25 PM -20.0230 -48.9640 143° Southeast 440 506 39,000  Level FlightAware ADS-B
Sun 05:38:09 PM -20.0950 -48.9050 142° Southeast 442 509 39,000  Level FlightAware ADS-B
Sun 05:38:50 PM -20.1640 -48.8490 143° Southeast 442 509 39,000  Level FlightAware ADS-B
Sun 05:39:21 PM -20.2170 -48.8060 143° Southeast 442 509 39,000  Level FlightAware ADS-B
Sun 05:39:53 PM -20.2650 -48.7670 143° Southeast 442 509 39,000  Level FlightAware ADS-B
Sun 05:40:43 PM -20.3490 -48.6980 142° Southeast 442 509 39,000  Level FlightAware ADS-B
Sun 05:41:41 PM -20.4450 -48.6200 143° Southeast 445 512 39,000  Level FlightAware ADS-B
Sun 05:42:29 PM -20.5230 -48.5560 142° Southeast 445 512 39,000  Level FlightAware ADS-B
Sun 05:43:01 PM -20.5750 -48.5130 142° Southeast 444 511 39,000  Level FlightAware ADS-B
Sun 05:43:38 PM -20.6350 -48.4650 143° Southeast 443 510 39,000  Level FlightAware ADS-B
Sun 05:44:18 PM -20.6990 -48.4120 142° Southeast 445 512 39,000  Level FlightAware ADS-B
Sun 05:45:21 PM -20.8030 -48.3260 142° Southeast 445 512 39,000  Level FlightAware ADS-B
Sun 05:46:13 PM -20.8900 -48.2550 143° Southeast 446 513 39,000  Level FlightAware ADS-B
Sun 05:47:03 PM -20.9700 -48.1890 142° Southeast 448 516 39,000  Level FlightAware ADS-B
Sun 05:47:33 PM -21.0200 -48.1480 143° Southeast 448 516 39,000  Level FlightAware ADS-B
Sun 05:48:35 PM -21.1210 -48.0640 142° Southeast 448 516 39,000  Level FlightAware ADS-B
Sun 05:49:20 PM -21.1950 -48.0030 142° Southeast 446 513 39,000  Level FlightAware ADS-B
Sun 05:50:13 PM -21.2840 -47.9360 145° Southeast 440 506 39,000  Level FlightAware ADS-B
Sun 05:51:12 PM -21.3870 -47.8700 149° Southeast 441 507 39,000  Level FlightAware ADS-B
Sun 05:52:02 PM -21.4770 -47.8120 149° Southeast 443 510 39,000  Level FlightAware ADS-B
Sun 05:52:30 PM -21.5250 -47.7810 149° Southeast 442 509 39,000  Level FlightAware ADS-B
Sun 05:53:34 PM -21.6380 -47.7090 149° Southeast 442 509 39,000 -569 Level FlightAware ADS-B
Sun 05:54:26 PM -21.7300 -47.6490 149° Southeast 455 524 37,900 -2,222 Descending FlightAware ADS-B
Sun 05:55:22 PM -21.8330 -47.5830 149° Southeast 466 536 35,000 -2,965 Descending FlightAware ADS-B
Sun 05:55:51 PM -21.8860 -47.5480 149° Southeast 468 539 33,700 -2,775 Descending FlightAware ADS-B
Sun 05:56:42 PM -21.9820 -47.4860 149° Southeast 473 544 31,300 -2,541 Descending FlightAware ADS-B
Sun 05:57:16 PM -22.0460 -47.4440 149° Southeast 471 542 30,100 -2,023 Descending FlightAware ADS-B
Sun 05:58:08 PM -22.1430 -47.3810 149° Southeast 465 535 28,400 -2,036 Descending FlightAware ADS-B
Sun 05:59:08 PM -22.2540 -47.3090 149° Southeast 462 532 26,300 -2,041 Descending FlightAware ADS-B
Sun 05:59:45 PM -22.3180 -47.2670 149° Southeast 458 527 25,100 -2,000 Descending FlightAware ADS-B
Sun 06:00:41 PM -22.4220 -47.1990 149° Southeast 449 517 23,200 -1,964 Descending FlightAware ADS-B
Sun 06:01:35 PM -22.5150 -47.1380 149° Southeast 430 495 21,500 -1,902 Descending FlightAware ADS-B
Sun 06:02:03 PM -22.5630 -47.1070 149° Southeast 422 486 20,600 -1,929 Descending FlightAware ADS-B
Sun 06:02:59 PM -22.6600 -47.0620 157° South 407 468 18,800 -1,950 Descending FlightAware ADS-B
Sun 06:03:23 PM -22.7050 -47.0440 160° South 402 463 18,000 -1,900 Descending FlightAware ADS-B
Sun 06:03:59 PM -22.7670 -47.0180 159° South 403 464 16,900 -1,538 Descending FlightAware ADS-B
Sun 06:04:41 PM -22.8400 -46.9870 159° South 395 455 16,000 -500 Descending FlightAware ADS-B
Sun 06:05:47 PM -22.9530 -46.9400 159° South 397 457 16,000  Level FlightAware ADS-B
Sun 06:06:31 PM -23.0280 -46.9080 159° South 397 457 16,000 -1,467 Level FlightAware ADS-B
Sun 06:07:17 PM -23.1050 -46.8760 159° South 376 433 13,800 -3,209 Descending FlightAware ADS-B
Sun 06:07:57 PM -23.1690 -46.8490 159° South 357 411 11,400 -2,735 Descending FlightAware ADS-B
Sun 06:08:25 PM -23.2100 -46.8320 159° South 322 371 10,700 -1,875 Descending FlightAware ADS-B
Sun 06:09:01 PM -23.2570 -46.8110 158° South 298 343 9,400 -2,344 Descending FlightAware ADS-B
Sun 06:09:29 PM -23.2930 -46.7960 159° South 296 341 8,200 -2,333 Descending FlightAware ADS-B
Sun 06:09:55 PM -23.3260 -46.7820 159° South 283 326 7,300 -1,440 Descending FlightAware ADS-B
Sun 06:10:19 PM -23.3530 -46.7710 159° South 260 299 7,000 -625 Descending FlightAware ADS-B
Sun 06:10:43 PM -23.3780 -46.7560 151° Southeast 242 278 6,800 -600 Descending FlightAware ADS-B
Sun 06:10:59 PM -23.3910 -46.7450 142° Southeast 230 265 6,600 -655 Descending FlightAware ADS-B
Sun 06:11:38 PM -23.4190 -46.7180 138° Southeast 201 231 6,200 -814 Descending FlightAware ADS-B
Sun 06:11:58 PM -23.4340 -46.7040 139° Southeast 200 230 5,800 -1,050 Descending FlightAware ADS-B
Sun 06:12:18 PM -23.4480 -46.6900 137° Southeast 198 228 5,500 -1,000 Descending FlightAware ADS-B
Sun 06:12:58 PM -23.4650 -46.6540 117° Southeast 191 220 4,800 -676 Descending FlightAware ADS-B
Sun 06:13:29 PM -23.4750 -46.6280 113° Southeast 175 201 4,700 -300 Descending FlightAware ADS-B
Sun 06:13:58 PM -23.4700 -46.6030 78° East 174 200 4,500 -656 Descending FlightAware ADS-B
Sun 06:14:33 PM -23.4620 -46.5740 73° East 168 193 4,000 -873 Descending FlightAware ADS-B
Sun 06:14:53 PM -23.4580 -46.5590 74° East 157 181 3,700 -933 Descending FlightAware ADS-B
Sun 06:15:18 PM -23.4530 -46.5390 75° East 149 171 3,300 -873 Descending FlightAware ADS-B
Sun 06:15:48 PM -23.4470 -46.5170 73° East 147 169 2,900 -643 Descending FlightAware ADS-B
Sun 06:16:14 PM -23.4420 -46.4990 73° East 142 163 2,700 -462 Descending FlightAware ADS-B
Sun 06:16:49 PM -23.4360 -46.4770 73° East 135 155 -4,629 Descending FlightAware ADS-B
Sun 06:16:59 PM -23.4340 -46.4700 73° East 90 104  Level FlightAware ADS-B
Sun 06:17:26 PM -23.4310 -46.4600 72° East 90 104  Level FlightAware ADS-B

Login

Don't have an account? Register now (free) for customized features, flight alerts, and more!